sensor_id;sensor_type;location;lat;lon;timestamp;P1;durP1;ratioP1;P2;durP2;ratioP2
56593;SDS011;42474;51.660;5.824;2022-07-04T00:02:18;4.3;;;2.8;;
56593;SDS011;42474;51.660;5.824;2022-07-04T00:07:18;4.6;;;2.7;;
56593;SDS011;42474;51.660;5.824;2022-07-04T00:12:18;4.0;;;2.7;;
56593;SDS011;42474;51.660;5.824;2022-07-04T00:17:18;6.1;;;3.2;;
56593;SDS011;42474;51.660;5.824;2022-07-04T00:22:18;3.9;;;3.0;;
56593;SDS011;42474;51.660;5.824;2022-07-04T00:27:18;5.2;;;3.1;;
56593;SDS011;42474;51.660;5.824;2022-07-04T00:32:18;8.0;;;3.2;;
56593;SDS011;42474;51.660;5.824;2022-07-04T00:37:18;4.5;;;3.0;;
56593;SDS011;42474;51.660;5.824;2022-07-04T00:42:18;5.2;;;3.3;;
56593;SDS011;42474;51.660;5.824;2022-07-04T00:47:18;5.6;;;3.4;;
56593;SDS011;42474;51.660;5.824;2022-07-04T00:52:20;6.5;;;3.6;;
56593;SDS011;42474;51.660;5.824;2022-07-04T00:57:18;6.7;;;3.5;;
56593;SDS011;42474;51.660;5.824;2022-07-04T01:02:18;6.4;;;3.2;;
56593;SDS011;42474;51.660;5.824;2022-07-04T01:07:18;6.1;;;3.9;;
56593;SDS011;42474;51.660;5.824;2022-07-04T01:12:26;4.8;;;3.5;;
56593;SDS011;42474;51.660;5.824;2022-07-04T01:17:18;5.1;;;3.5;;
56593;SDS011;42474;51.660;5.824;2022-07-04T01:22:18;6.1;;;3.7;;
56593;SDS011;42474;51.660;5.824;2022-07-04T01:27:18;8.0;;;3.4;;
56593;SDS011;42474;51.660;5.824;2022-07-04T01:32:18;4.8;;;3.2;;
56593;SDS011;42474;51.660;5.824;2022-07-04T01:37:18;6.9;;;3.6;;
56593;SDS011;42474;51.660;5.824;2022-07-04T01:42:18;4.0;;;3.0;;
56593;SDS011;42474;51.660;5.824;2022-07-04T01:47:18;5.6;;;3.3;;
56593;SDS011;42474;51.660;5.824;2022-07-04T01:52:18;5.7;;;3.5;;
56593;SDS011;42474;51.660;5.824;2022-07-04T01:57:18;4.7;;;3.3;;
56593;SDS011;42474;51.660;5.824;2022-07-04T02:02:18;6.2;;;3.3;;
56593;SDS011;42474;51.660;5.824;2022-07-04T02:07:18;6.2;;;3.3;;
56593;SDS011;42474;51.660;5.824;2022-07-04T02:12:18;5.3;;;3.3;;
56593;SDS011;42474;51.660;5.824;2022-07-04T02:17:18;4.4;;;3.5;;
56593;SDS011;42474;51.660;5.824;2022-07-04T02:22:18;4.7;;;3.5;;
56593;SDS011;42474;51.660;5.824;2022-07-04T02:27:18;4.6;;;3.4;;
56593;SDS011;42474;51.660;5.824;2022-07-04T02:32:18;5.1;;;3.3;;
56593;SDS011;42474;51.660;5.824;2022-07-04T02:37:18;4.2;;;3.6;;
56593;SDS011;42474;51.660;5.824;2022-07-04T02:42:18;5.8;;;3.7;;
56593;SDS011;42474;51.660;5.824;2022-07-04T02:47:18;5.9;;;3.6;;
56593;SDS011;42474;51.660;5.824;2022-07-04T02:52:18;5.8;;;3.7;;
56593;SDS011;42474;51.660;5.824;2022-07-04T02:57:18;5.2;;;3.9;;
56593;SDS011;42474;51.660;5.824;2022-07-04T03:02:18;7.1;;;3.7;;
56593;SDS011;42474;51.660;5.824;2022-07-04T03:07:18;5.8;;;3.9;;
56593;SDS011;42474;51.660;5.824;2022-07-04T03:12:18;6.5;;;4.0;;
56593;SDS011;42474;51.660;5.824;2022-07-04T03:17:18;4.5;;;3.4;;
56593;SDS011;42474;51.660;5.824;2022-07-04T03:22:18;5.7;;;3.5;;
56593;SDS011;42474;51.660;5.824;2022-07-04T03:27:18;5.8;;;3.4;;
56593;SDS011;42474;51.660;5.824;2022-07-04T03:32:18;5.5;;;3.8;;
56593;SDS011;42474;51.660;5.824;2022-07-04T03:37:18;7.8;;;3.9;;
56593;SDS011;42474;51.660;5.824;2022-07-04T03:42:18;8.8;;;4.1;;
56593;SDS011;42474;51.660;5.824;2022-07-04T03:47:18;5.4;;;3.5;;
56593;SDS011;42474;51.660;5.824;2022-07-04T03:52:18;5.3;;;3.5;;
56593;SDS011;42474;51.660;5.824;2022-07-04T03:57:18;6.1;;;3.9;;
56593;SDS011;42474;51.660;5.824;2022-07-04T04:02:18;5.9;;;4.3;;
56593;SDS011;42474;51.660;5.824;2022-07-04T04:07:18;8.3;;;4.6;;
56593;SDS011;42474;51.660;5.824;2022-07-04T04:12:18;7.6;;;4.2;;
56593;SDS011;42474;51.660;5.824;2022-07-04T04:17:18;5.6;;;4.5;;
56593;SDS011;42474;51.660;5.824;2022-07-04T04:22:18;6.5;;;4.1;;
56593;SDS011;42474;51.660;5.824;2022-07-04T04:27:18;5.1;;;4.0;;
56593;SDS011;42474;51.660;5.824;2022-07-04T04:32:18;6.4;;;4.2;;
56593;SDS011;42474;51.660;5.824;2022-07-04T04:37:18;6.9;;;4.2;;
56593;SDS011;42474;51.660;5.824;2022-07-04T04:42:18;6.0;;;3.7;;
56593;SDS011;42474;51.660;5.824;2022-07-04T04:47:18;8.7;;;4.3;;
56593;SDS011;42474;51.660;5.824;2022-07-04T04:52:18;5.1;;;3.6;;
56593;SDS011;42474;51.660;5.824;2022-07-04T04:57:18;6.5;;;3.6;;
56593;SDS011;42474;51.660;5.824;2022-07-04T05:02:18;5.6;;;3.2;;
56593;SDS011;42474;51.660;5.824;2022-07-04T05:07:18;4.8;;;3.1;;
56593;SDS011;42474;51.660;5.824;2022-07-04T05:12:18;4.1;;;2.9;;
56593;SDS011;42474;51.660;5.824;2022-07-04T05:17:18;5.5;;;3.5;;
56593;SDS011;42474;51.660;5.824;2022-07-04T05:22:18;5.3;;;3.2;;
56593;SDS011;42474;51.660;5.824;2022-07-04T05:27:18;6.1;;;3.3;;
56593;SDS011;42474;51.660;5.824;2022-07-04T05:32:18;6.9;;;3.1;;
56593;SDS011;42474;51.660;5.824;2022-07-04T05:37:18;6.2;;;3.2;;
56593;SDS011;42474;51.660;5.824;2022-07-04T05:42:18;5.2;;;3.4;;
56593;SDS011;42474;51.660;5.824;2022-07-04T05:47:18;4.5;;;3.6;;
56593;SDS011;42474;51.660;5.824;2022-07-04T05:52:18;11.1;;;3.8;;
56593;SDS011;42474;51.660;5.824;2022-07-04T05:57:18;5.1;;;3.4;;
56593;SDS011;42474;51.660;5.824;2022-07-04T06:02:18;6.9;;;3.9;;
56593;SDS011;42474;51.660;5.824;2022-07-04T06:07:18;5.9;;;3.9;;
56593;SDS011;42474;51.660;5.824;2022-07-04T06:12:18;5.7;;;3.3;;
56593;SDS011;42474;51.660;5.824;2022-07-04T06:17:18;8.1;;;3.5;;
56593;SDS011;42474;51.660;5.824;2022-07-04T06:22:18;7.0;;;3.9;;
56593;SDS011;42474;51.660;5.824;2022-07-04T06:27:18;5.3;;;3.2;;
56593;SDS011;42474;51.660;5.824;2022-07-04T06:32:18;6.4;;;3.5;;
56593;SDS011;42474;51.660;5.824;2022-07-04T06:37:18;6.2;;;4.0;;
56593;SDS011;42474;51.660;5.824;2022-07-04T06:42:18;7.2;;;3.8;;
56593;SDS011;42474;51.660;5.824;2022-07-04T06:47:18;5.6;;;3.9;;
56593;SDS011;42474;51.660;5.824;2022-07-04T06:52:18;6.8;;;3.5;;
56593;SDS011;42474;51.660;5.824;2022-07-04T06:57:18;5.2;;;2.9;;
56593;SDS011;42474;51.660;5.824;2022-07-04T07:02:18;4.1;;;2.8;;
56593;SDS011;42474;51.660;5.824;2022-07-04T07:07:18;4.9;;;2.6;;
56593;SDS011;42474;51.660;5.824;2022-07-04T07:12:18;5.1;;;3.1;;
56593;SDS011;42474;51.660;5.824;2022-07-04T07:17:18;7.5;;;2.8;;
56593;SDS011;42474;51.660;5.824;2022-07-04T07:22:18;4.4;;;2.6;;
56593;SDS011;42474;51.660;5.824;2022-07-04T07:27:18;3.6;;;2.7;;
56593;SDS011;42474;51.660;5.824;2022-07-04T07:32:18;5.2;;;3.1;;
56593;SDS011;42474;51.660;5.824;2022-07-04T07:37:18;4.0;;;2.2;;
56593;SDS011;42474;51.660;5.824;2022-07-04T07:42:18;6.8;;;2.5;;
56593;SDS011;42474;51.660;5.824;2022-07-04T07:47:18;6.0;;;2.3;;
56593;SDS011;42474;51.660;5.824;2022-07-04T07:52:18;4.2;;;2.5;;
56593;SDS011;42474;51.660;5.824;2022-07-04T07:57:18;3.6;;;2.2;;
56593;SDS011;42474;51.660;5.824;2022-07-04T08:02:18;4.7;;;2.5;;
56593;SDS011;42474;51.660;5.824;2022-07-04T08:07:18;5.6;;;2.2;;
56593;SDS011;42474;51.660;5.824;2022-07-04T08:12:18;4.9;;;2.6;;
56593;SDS011;42474;51.660;5.824;2022-07-04T08:17:18;4.8;;;2.2;;
56593;SDS011;42474;51.660;5.824;2022-07-04T08:22:18;3.9;;;2.0;;
56593;SDS011;42474;51.660;5.824;2022-07-04T08:27:19;3.7;;;1.8;;
56593;SDS011;42474;51.660;5.824;2022-07-04T08:32:18;3.7;;;2.0;;
56593;SDS011;42474;51.660;5.824;2022-07-04T08:37:18;3.7;;;2.3;;
56593;SDS011;42474;51.660;5.824;2022-07-04T08:42:19;4.5;;;1.9;;
56593;SDS011;42474;51.660;5.824;2022-07-04T08:47:20;4.7;;;2.1;;
56593;SDS011;42474;51.660;5.824;2022-07-04T08:52:32;3.0;;;2.0;;
56593;SDS011;42474;51.660;5.824;2022-07-04T08:57:18;4.3;;;1.9;;
56593;SDS011;42474;51.660;5.824;2022-07-04T09:02:18;4.0;;;1.8;;
56593;SDS011;42474;51.660;5.824;2022-07-04T09:07:18;4.9;;;1.9;;
56593;SDS011;42474;51.660;5.824;2022-07-04T09:12:18;4.0;;;1.6;;
56593;SDS011;42474;51.660;5.824;2022-07-04T09:17:18;2.5;;;1.5;;
56593;SDS011;42474;51.660;5.824;2022-07-04T09:22:18;2.9;;;1.3;;
56593;SDS011;42474;51.660;5.824;2022-07-04T09:27:30;3.2;;;1.4;;
56593;SDS011;42474;51.660;5.824;2022-07-04T09:32:32;4.6;;;1.5;;
56593;SDS011;42474;51.660;5.824;2022-07-04T09:37:18;2.6;;;1.5;;
56593;SDS011;42474;51.660;5.824;2022-07-04T09:42:18;3.8;;;1.2;;
56593;SDS011;42474;51.660;5.824;2022-07-04T09:47:30;2.6;;;1.2;;
56593;SDS011;42474;51.660;5.824;2022-07-04T09:52:18;2.5;;;1.4;;
56593;SDS011;42474;51.660;5.824;2022-07-04T09:57:22;2.4;;;1.5;;
56593;SDS011;42474;51.660;5.824;2022-07-04T10:02:18;2.3;;;1.2;;
56593;SDS011;42474;51.660;5.824;2022-07-04T10:07:34;3.3;;;1.7;;
56593;SDS011;42474;51.660;5.824;2022-07-04T10:12:24;2.8;;;1.4;;
56593;SDS011;42474;51.660;5.824;2022-07-04T10:17:18;4.3;;;1.6;;
56593;SDS011;42474;51.660;5.824;2022-07-04T10:22:18;2.1;;;1.3;;
56593;SDS011;42474;51.660;5.824;2022-07-04T10:27:18;4.0;;;1.3;;
56593;SDS011;42474;51.660;5.824;2022-07-04T10:32:18;3.4;;;1.4;;
56593;SDS011;42474;51.660;5.824;2022-07-04T10:37:18;3.0;;;1.4;;
56593;SDS011;42474;51.660;5.824;2022-07-04T10:42:25;2.9;;;1.4;;
56593;SDS011;42474;51.660;5.824;2022-07-04T10:47:25;2.9;;;1.2;;
56593;SDS011;42474;51.660;5.824;2022-07-04T10:52:18;2.2;;;1.2;;
56593;SDS011;42474;51.660;5.824;2022-07-04T10:57:19;4.1;;;1.1;;
56593;SDS011;42474;51.660;5.824;2022-07-04T11:02:28;3.8;;;1.3;;
56593;SDS011;42474;51.660;5.824;2022-07-04T11:07:19;3.2;;;1.1;;
56593;SDS011;42474;51.660;5.824;2022-07-04T11:12:18;4.0;;;1.4;;
56593;SDS011;42474;51.660;5.824;2022-07-04T11:17:26;3.3;;;1.2;;
56593;SDS011;42474;51.660;5.824;2022-07-04T11:22:22;2.7;;;1.3;;
56593;SDS011;42474;51.660;5.824;2022-07-04T11:27:20;3.8;;;1.3;;
56593;SDS011;42474;51.660;5.824;2022-07-04T11:32:18;3.2;;;1.3;;
56593;SDS011;42474;51.660;5.824;2022-07-04T11:37:18;2.6;;;1.4;;
56593;SDS011;42474;51.660;5.824;2022-07-04T11:42:19;3.7;;;1.6;;
56593;SDS011;42474;51.660;5.824;2022-07-04T11:47:19;3.4;;;1.6;;
56593;SDS011;42474;51.660;5.824;2022-07-04T11:52:19;2.9;;;2.0;;
56593;SDS011;42474;51.660;5.824;2022-07-04T11:57:20;4.4;;;2.3;;
56593;SDS011;42474;51.660;5.824;2022-07-04T12:02:18;4.2;;;2.5;;
56593;SDS011;42474;51.660;5.824;2022-07-04T12:07:19;5.2;;;1.9;;
56593;SDS011;42474;51.660;5.824;2022-07-04T12:12:19;5.0;;;2.2;;
56593;SDS011;42474;51.660;5.824;2022-07-04T12:17:20;3.8;;;1.8;;
56593;SDS011;42474;51.660;5.824;2022-07-04T12:22:23;5.1;;;2.2;;
56593;SDS011;42474;51.660;5.824;2022-07-04T12:27:18;3.6;;;2.5;;
56593;SDS011;42474;51.660;5.824;2022-07-04T12:32:18;2.1;;;1.4;;
56593;SDS011;42474;51.660;5.824;2022-07-04T12:37:18;3.8;;;1.9;;
56593;SDS011;42474;51.660;5.824;2022-07-04T12:42:18;4.3;;;2.0;;
56593;SDS011;42474;51.660;5.824;2022-07-04T12:47:18;2.9;;;1.6;;
56593;SDS011;42474;51.660;5.824;2022-07-04T12:52:18;3.0;;;1.5;;
56593;SDS011;42474;51.660;5.824;2022-07-04T12:57:18;3.0;;;1.4;;
56593;SDS011;42474;51.660;5.824;2022-07-04T13:02:18;5.3;;;1.5;;
56593;SDS011;42474;51.660;5.824;2022-07-04T13:07:18;4.0;;;1.9;;
56593;SDS011;42474;51.660;5.824;2022-07-04T13:12:18;4.5;;;2.3;;
56593;SDS011;42474;51.660;5.824;2022-07-04T13:17:18;4.7;;;2.4;;
56593;SDS011;42474;51.660;5.824;2022-07-04T13:22:19;3.9;;;2.4;;
56593;SDS011;42474;51.660;5.824;2022-07-04T13:27:18;3.5;;;2.2;;
56593;SDS011;42474;51.660;5.824;2022-07-04T13:32:18;3.9;;;2.1;;
56593;SDS011;42474;51.660;5.824;2022-07-04T13:37:18;4.2;;;2.2;;
56593;SDS011;42474;51.660;5.824;2022-07-04T13:42:19;3.4;;;2.2;;
56593;SDS011;42474;51.660;5.824;2022-07-04T13:47:18;3.2;;;1.8;;
56593;SDS011;42474;51.660;5.824;2022-07-04T13:52:18;4.4;;;1.9;;
56593;SDS011;42474;51.660;5.824;2022-07-04T13:57:18;4.5;;;1.6;;
56593;SDS011;42474;51.660;5.824;2022-07-04T14:02:18;2.5;;;1.6;;
56593;SDS011;42474;51.660;5.824;2022-07-04T14:07:18;4.5;;;2.0;;
56593;SDS011;42474;51.660;5.824;2022-07-04T14:12:18;2.8;;;1.6;;
56593;SDS011;42474;51.660;5.824;2022-07-04T14:17:18;2.9;;;1.6;;
56593;SDS011;42474;51.660;5.824;2022-07-04T14:22:18;2.4;;;1.3;;
56593;SDS011;42474;51.660;5.824;2022-07-04T14:27:18;3.0;;;1.4;;
56593;SDS011;42474;51.660;5.824;2022-07-04T14:32:18;2.7;;;1.8;;
56593;SDS011;42474;51.660;5.824;2022-07-04T14:37:18;4.7;;;1.6;;
56593;SDS011;42474;51.660;5.824;2022-07-04T14:42:18;3.1;;;1.6;;
56593;SDS011;42474;51.660;5.824;2022-07-04T14:47:18;4.0;;;1.6;;
56593;SDS011;42474;51.660;5.824;2022-07-04T14:52:18;2.9;;;1.7;;
56593;SDS011;42474;51.660;5.824;2022-07-04T14:57:18;2.5;;;1.5;;
56593;SDS011;42474;51.660;5.824;2022-07-04T15:02:18;1.7;;;1.2;;
56593;SDS011;42474;51.660;5.824;2022-07-04T15:07:18;2.3;;;1.5;;
56593;SDS011;42474;51.660;5.824;2022-07-04T15:12:18;2.1;;;1.5;;
56593;SDS011;42474;51.660;5.824;2022-07-04T15:17:18;3.1;;;1.3;;
56593;SDS011;42474;51.660;5.824;2022-07-04T15:22:18;3.5;;;1.6;;
56593;SDS011;42474;51.660;5.824;2022-07-04T15:27:18;1.9;;;1.3;;
56593;SDS011;42474;51.660;5.824;2022-07-04T15:32:18;2.7;;;1.6;;
56593;SDS011;42474;51.660;5.824;2022-07-04T15:37:18;3.6;;;2.0;;
56593;SDS011;42474;51.660;5.824;2022-07-04T15:42:18;2.9;;;1.6;;
56593;SDS011;42474;51.660;5.824;2022-07-04T15:47:18;3.1;;;1.7;;
56593;SDS011;42474;51.660;5.824;2022-07-04T15:57:18;2.3;;;1.7;;
56593;SDS011;42474;51.660;5.824;2022-07-04T16:07:18;2.5;;;1.5;;
56593;SDS011;42474;51.660;5.824;2022-07-04T16:12:18;2.7;;;1.6;;
56593;SDS011;42474;51.660;5.824;2022-07-04T16:17:18;3.8;;;1.9;;
56593;SDS011;42474;51.660;5.824;2022-07-04T16:22:18;2.1;;;1.7;;
56593;SDS011;42474;51.660;5.824;2022-07-04T16:27:19;3.6;;;1.9;;
56593;SDS011;42474;51.660;5.824;2022-07-04T16:32:18;2.6;;;1.7;;
56593;SDS011;42474;51.660;5.824;2022-07-04T16:37:19;3.3;;;1.7;;
56593;SDS011;42474;51.660;5.824;2022-07-04T16:42:18;3.2;;;2.2;;
56593;SDS011;42474;51.660;5.824;2022-07-04T16:47:18;2.1;;;1.4;;
56593;SDS011;42474;51.660;5.824;2022-07-04T16:52:18;2.5;;;1.6;;
56593;SDS011;42474;51.660;5.824;2022-07-04T16:57:18;2.5;;;1.6;;
56593;SDS011;42474;51.660;5.824;2022-07-04T17:07:18;2.4;;;1.5;;
56593;SDS011;42474;51.660;5.824;2022-07-04T17:17:18;2.8;;;1.6;;
56593;SDS011;42474;51.660;5.824;2022-07-04T17:22:18;2.9;;;1.6;;
56593;SDS011;42474;51.660;5.824;2022-07-04T17:27:18;5.0;;;1.6;;
56593;SDS011;42474;51.660;5.824;2022-07-04T17:42:19;3.3;;;2.0;;
56593;SDS011;42474;51.660;5.824;2022-07-04T17:47:19;2.3;;;1.8;;
56593;SDS011;42474;51.660;5.824;2022-07-04T17:52:19;3.3;;;1.7;;
56593;SDS011;42474;51.660;5.824;2022-07-04T17:57:19;2.4;;;1.7;;
56593;SDS011;42474;51.660;5.824;2022-07-04T18:02:19;2.8;;;1.7;;
56593;SDS011;42474;51.660;5.824;2022-07-04T18:07:19;2.7;;;1.8;;
56593;SDS011;42474;51.660;5.824;2022-07-04T18:12:19;2.7;;;1.8;;
56593;SDS011;42474;51.660;5.824;2022-07-04T18:17:19;3.6;;;1.9;;
56593;SDS011;42474;51.660;5.824;2022-07-04T18:22:19;2.9;;;2.0;;
56593;SDS011;42474;51.660;5.824;2022-07-04T18:27:19;2.9;;;2.0;;
56593;SDS011;42474;51.660;5.824;2022-07-04T18:32:19;3.1;;;2.0;;
56593;SDS011;42474;51.660;5.824;2022-07-04T18:37:19;3.5;;;1.9;;
56593;SDS011;42474;51.660;5.824;2022-07-04T18:42:19;2.4;;;1.9;;
56593;SDS011;42474;51.660;5.824;2022-07-04T18:47:19;6.9;;;1.9;;
56593;SDS011;42474;51.660;5.824;2022-07-04T18:52:19;3.4;;;1.9;;
56593;SDS011;42474;51.660;5.824;2022-07-04T18:57:19;3.3;;;1.7;;
56593;SDS011;42474;51.660;5.824;2022-07-04T19:02:19;4.3;;;2.0;;
56593;SDS011;42474;51.660;5.824;2022-07-04T19:07:19;2.2;;;1.8;;
56593;SDS011;42474;51.660;5.824;2022-07-04T19:12:19;3.6;;;2.1;;
56593;SDS011;42474;51.660;5.824;2022-07-04T19:17:19;3.2;;;2.0;;
56593;SDS011;42474;51.660;5.824;2022-07-04T19:22:19;3.5;;;2.3;;
56593;SDS011;42474;51.660;5.824;2022-07-04T19:27:19;3.5;;;2.2;;
56593;SDS011;42474;51.660;5.824;2022-07-04T19:32:19;3.5;;;2.3;;
56593;SDS011;42474;51.660;5.824;2022-07-04T19:42:19;4.8;;;2.8;;
56593;SDS011;42474;51.660;5.824;2022-07-04T19:47:21;3.9;;;2.6;;
56593;SDS011;42474;51.660;5.824;2022-07-04T19:52:19;4.3;;;2.7;;
56593;SDS011;42474;51.660;5.824;2022-07-04T19:57:19;4.0;;;2.9;;
56593;SDS011;42474;51.660;5.824;2022-07-04T20:02:19;3.0;;;2.4;;
56593;SDS011;42474;51.660;5.824;2022-07-04T20:12:20;2.9;;;2.3;;
56593;SDS011;42474;51.660;5.824;2022-07-04T20:17:21;3.3;;;2.3;;
56593;SDS011;42474;51.660;5.824;2022-07-04T20:22:19;4.1;;;2.9;;
56593;SDS011;42474;51.660;5.824;2022-07-04T20:27:20;6.9;;;2.7;;
56593;SDS011;42474;51.660;5.824;2022-07-04T20:32:19;3.0;;;2.3;;
56593;SDS011;42474;51.660;5.824;2022-07-04T20:37:19;3.3;;;2.6;;
56593;SDS011;42474;51.660;5.824;2022-07-04T20:42:19;3.4;;;2.2;;
56593;SDS011;42474;51.660;5.824;2022-07-04T20:47:19;3.3;;;2.1;;
56593;SDS011;42474;51.660;5.824;2022-07-04T20:52:19;3.3;;;2.4;;
56593;SDS011;42474;51.660;5.824;2022-07-04T20:57:19;2.7;;;2.1;;
56593;SDS011;42474;51.660;5.824;2022-07-04T21:02:19;4.1;;;2.8;;
56593;SDS011;42474;51.660;5.824;2022-07-04T21:12:19;3.5;;;2.6;;
56593;SDS011;42474;51.660;5.824;2022-07-04T21:17:19;3.5;;;2.7;;
56593;SDS011;42474;51.660;5.824;2022-07-04T21:22:19;4.3;;;2.9;;
56593;SDS011;42474;51.660;5.824;2022-07-04T21:27:19;4.0;;;3.0;;
56593;SDS011;42474;51.660;5.824;2022-07-04T21:32:19;3.4;;;3.1;;
56593;SDS011;42474;51.660;5.824;2022-07-04T21:37:19;5.6;;;3.3;;
56593;SDS011;42474;51.660;5.824;2022-07-04T21:42:19;4.5;;;3.4;;
56593;SDS011;42474;51.660;5.824;2022-07-04T21:52:19;4.4;;;3.0;;
56593;SDS011;42474;51.660;5.824;2022-07-04T21:57:19;4.0;;;3.3;;
56593;SDS011;42474;51.660;5.824;2022-07-04T22:02:19;3.9;;;3.2;;
56593;SDS011;42474;51.660;5.824;2022-07-04T22:07:19;5.2;;;3.0;;
56593;SDS011;42474;51.660;5.824;2022-07-04T22:12:19;4.6;;;3.0;;
56593;SDS011;42474;51.660;5.824;2022-07-04T22:22:19;3.9;;;2.8;;
56593;SDS011;42474;51.660;5.824;2022-07-04T22:27:19;3.7;;;2.8;;
56593;SDS011;42474;51.660;5.824;2022-07-04T22:32:19;3.4;;;2.5;;
56593;SDS011;42474;51.660;5.824;2022-07-04T22:37:19;5.3;;;2.5;;
56593;SDS011;42474;51.660;5.824;2022-07-04T22:42:19;3.7;;;2.4;;
56593;SDS011;42474;51.660;5.824;2022-07-04T22:47:19;4.3;;;2.8;;
56593;SDS011;42474;51.660;5.824;2022-07-04T22:52:19;5.4;;;2.8;;
56593;SDS011;42474;51.660;5.824;2022-07-04T22:57:19;3.1;;;2.5;;
56593;SDS011;42474;51.660;5.824;2022-07-04T23:02:19;2.9;;;2.3;;
56593;SDS011;42474;51.660;5.824;2022-07-04T23:07:19;2.8;;;2.2;;
56593;SDS011;42474;51.660;5.824;2022-07-04T23:12:19;3.7;;;2.4;;
56593;SDS011;42474;51.660;5.824;2022-07-04T23:17:19;3.2;;;2.5;;
56593;SDS011;42474;51.660;5.824;2022-07-04T23:22:19;3.9;;;2.2;;
56593;SDS011;42474;51.660;5.824;2022-07-04T23:27:19;3.2;;;2.6;;
56593;SDS011;42474;51.660;5.824;2022-07-04T23:32:19;4.1;;;2.1;;
56593;SDS011;42474;51.660;5.824;2022-07-04T23:37:19;2.6;;;2.3;;
56593;SDS011;42474;51.660;5.824;2022-07-04T23:42:19;3.4;;;2.5;;
56593;SDS011;42474;51.660;5.824;2022-07-04T23:52:19;4.8;;;2.4;;
56593;SDS011;42474;51.660;5.824;2022-07-04T23:57:19;3.8;;;2.8;;
